Time;durP1;ratioP1;P1;durP2;ratioP2;P2;SDS_P1;SDS_P2;PMS_P1;PMS_P2;Temp;Humidity;BMP_temperature;BMP_pressure;BME280_temperature;BME280_humidity;BME280_pressure;Samples;Min_cycle;Max_cycle;Signal;HPM_P1;HPM_P2
2022/03/04 00:01:38;;;;;;;19.52;12.68;;;1.30;99.90;;;;;;5093925;28;20224;-57
2022/03/04 00:04:05;;;;;;;24.05;14.35;;;1.30;99.90;;;;;;5094272;28;20204;-58
2022/03/04 00:06:32;;;;;;;20.08;13.30;;;1.30;99.90;;;;;;5095405;28;20556;-58
2022/03/04 00:08:59;;;;;;;21.15;13.65;;;1.40;99.90;;;;;;5095370;28;20204;-57
2022/03/04 00:11:29;;;;;;;26.25;14.95;;;1.40;99.90;;;;;;5094548;28;20570;-57
2022/03/04 00:13:56;;;;;;;20.95;13.60;;;1.40;99.90;;;;;;5100266;28;20212;-58
2022/03/04 00:16:24;;;;;;;25.23;15.57;;;1.40;99.90;;;;;;5101768;28;20560;-57
2022/03/04 00:19:06;;;;;;;23.38;14.60;;;1.40;99.90;;;;;;5097879;28;20254;-57
2022/03/04 00:21:33;;;;;;;25.98;16.33;;;1.40;99.90;;;;;;5095798;28;20202;-56
2022/03/04 00:24:01;;;;;;;23.00;14.68;;;1.40;99.90;;;;;;5095758;28;20218;-57
2022/03/04 00:26:29;;;;;;;22.77;14.45;;;1.40;99.90;;;;;;5100174;28;20200;-58
2022/03/04 00:28:57;;;;;;;22.20;15.35;;;1.40;99.90;;;;;;5100398;28;20682;-57
2022/03/04 00:31:24;;;;;;;28.00;16.27;;;1.40;99.90;;;;;;5101060;28;20196;-57
2022/03/04 00:33:51;;;;;;;26.92;16.48;;;1.40;99.90;;;;;;5101198;28;20234;-58
2022/03/04 00:36:22;;;;;;;25.40;14.93;;;1.40;99.90;;;;;;5100043;28;20207;-58
2022/03/04 00:38:49;;;;;;;22.13;15.07;;;1.40;99.90;;;;;;5099783;28;20684;-58
2022/03/04 00:41:18;;;;;;;25.75;15.20;;;1.30;99.90;;;;;;5099744;28;20203;-57
2022/03/04 00:43:47;;;;;;;22.38;14.80;;;1.30;99.90;;;;;;5098195;28;20668;-57
2022/03/04 00:46:15;;;;;;;23.73;14.95;;;1.30;99.90;;;;;;5097810;28;20211;-57
2022/03/04 00:48:42;;;;;;;24.83;15.93;;;1.20;99.90;;;;;;5097307;28;20200;-57
2022/03/04 00:51:10;;;;;;;21.90;14.77;;;1.20;99.90;;;;;;5097280;28;20574;-58
2022/03/04 00:53:38;;;;;;;25.20;14.75;;;1.20;99.90;;;;;;5097015;28;20608;-57
2022/03/04 00:56:07;;;;;;;21.92;14.77;;;1.30;99.90;;;;;;5097707;28;20207;-56
2022/03/04 00:58:35;;;;;;;20.25;13.82;;;1.30;99.90;;;;;;5097267;28;20204;-57
2022/03/04 01:01:04;;;;;;;27.17;15.25;;;1.30;99.90;;;;;;5097151;28;20570;-57
2022/03/04 01:03:31;;;;;;;21.10;14.70;;;1.40;99.90;;;;;;5097129;28;20231;-58
2022/03/04 01:05:59;;;;;;;23.40;13.82;;;1.40;99.90;;;;;;5096911;28;20206;-57
2022/03/04 01:08:26;;;;;;;28.58;16.80;;;1.40;99.90;;;;;;5096720;28;20672;-58
2022/03/04 01:10:54;;;;;;;26.30;15.20;;;1.40;99.90;;;;;;5096318;28;20223;-57
2022/03/04 01:13:23;;;;;;;26.15;14.15;;;1.40;99.90;;;;;;5096495;28;20274;-58
2022/03/04 01:15:50;;;;;;;21.77;14.32;;;1.40;99.90;;;;;;5096483;28;20228;-57
2022/03/04 01:18:19;;;;;;;24.05;14.80;;;1.40;99.90;;;;;;5096250;28;20204;-57
2022/03/04 01:20:46;;;;;;;20.55;13.95;;;1.40;99.90;;;;;;5096134;28;20751;-56
2022/03/04 01:23:13;;;;;;;23.15;13.45;;;1.40;99.90;;;;;;5096112;28;20239;-58
2022/03/04 01:25:40;;;;;;;20.63;13.15;;;1.40;99.90;;;;;;5096162;28;20564;-57
2022/03/04 01:28:07;;;;;;;19.58;12.40;;;1.40;99.90;;;;;;5096390;28;20569;-57
2022/03/04 01:30:35;;;;;;;21.48;13.68;;;1.40;99.90;;;;;;5096443;28;20200;-57
2022/03/04 01:33:02;;;;;;;23.80;14.02;;;1.40;99.90;;;;;;5095861;28;20216;-57
2022/03/04 01:35:30;;;;;;;19.83;12.77;;;1.40;99.90;;;;;;5095951;28;20234;-58
2022/03/04 01:37:57;;;;;;;19.83;12.05;;;1.40;99.90;;;;;;5095408;28;20201;-57
2022/03/04 01:40:24;;;;;;;22.65;12.40;;;1.40;99.90;;;;;;5096133;28;20239;-57
2022/03/04 01:42:52;;;;;;;18.80;11.57;;;1.40;99.90;;;;;;5095975;28;20235;-58
2022/03/04 01:45:19;;;;;;;23.92;12.23;;;1.40;99.90;;;;;;5095726;28;20207;-57
2022/03/04 01:47:46;;;;;;;19.95;12.40;;;1.40;99.90;;;;;;5096698;28;20222;-58
2022/03/04 01:50:13;;;;;;;23.83;14.13;;;1.50;99.90;;;;;;5096993;28;20601;-57
2022/03/04 01:52:42;;;;;;;19.35;12.95;;;1.50;99.90;;;;;;5096773;28;20599;-56
2022/03/04 01:55:10;;;;;;;20.55;13.27;;;1.50;99.90;;;;;;5097551;28;20237;-56
2022/03/04 01:57:38;;;;;;;21.45;14.60;;;1.50;99.90;;;;;;5096866;28;20196;-57
2022/03/04 02:00:09;;;;;;;23.23;13.65;;;1.50;99.90;;;;;;5095894;28;20204;-57
2022/03/04 02:02:36;;;;;;;22.63;14.38;;;1.50;99.90;;;;;;5095563;28;20220;-57
2022/03/04 02:05:03;;;;;;;22.77;14.30;;;1.60;99.90;;;;;;5095782;28;20613;-57
2022/03/04 02:07:30;;;;;;;15.98;11.85;;;1.60;99.90;;;;;;5096461;28;20204;-57
2022/03/04 02:09:59;;;;;;;22.60;12.93;;;1.60;99.90;;;;;;5096261;28;20207;-57
2022/03/04 02:12:27;;;;;;;19.13;12.25;;;1.60;99.90;;;;;;5095155;28;20704;-57
2022/03/04 02:14:54;;;;;;;16.45;11.65;;;1.60;99.90;;;;;;5095396;28;20219;-58
2022/03/04 02:17:21;;;;;;;17.08;11.93;;;1.60;99.90;;;;;;5095314;28;20200;-58
2022/03/04 02:19:52;;;;;;;18.52;12.13;;;1.70;99.90;;;;;;5095584;28;20228;-58
2022/03/04 02:22:21;;;;;;;16.92;12.50;;;1.70;99.90;;;;;;5095414;28;20256;-59
2022/03/04 02:24:48;;;;;;;18.30;13.38;;;1.70;99.90;;;;;;5099491;28;20666;-57
2022/03/04 02:27:15;;;;;;;21.17;12.80;;;1.70;99.90;;;;;;5097557;28;20202;-57
2022/03/04 02:29:43;;;;;;;21.50;14.00;;;1.70;99.90;;;;;;5096450;28;20208;-57
2022/03/04 02:32:10;;;;;;;21.77;14.35;;;1.70;99.90;;;;;;5095886;28;20231;-57
2022/03/04 02:34:37;;;;;;;15.40;11.45;;;1.70;99.90;;;;;;5095626;28;20248;-57
2022/03/04 02:37:05;;;;;;;15.93;11.80;;;1.80;99.90;;;;;;5094716;28;20205;-57
2022/03/04 02:39:33;;;;;;;18.50;11.90;;;1.80;99.90;;;;;;5095046;28;20204;-58
2022/03/04 02:42:00;;;;;;;20.05;12.15;;;1.80;99.90;;;;;;5095028;28;20224;-57
2022/03/04 02:44:27;;;;;;;17.63;11.13;;;1.80;99.90;;;;;;5094904;28;20204;-57
2022/03/04 02:46:55;;;;;;;18.58;11.60;;;1.80;99.90;;;;;;5095373;28;20201;-57
2022/03/04 02:49:22;;;;;;;20.38;12.68;;;1.80;99.90;;;;;;5095775;28;20200;-57
2022/03/04 02:51:49;;;;;;;17.08;11.13;;;1.80;99.90;;;;;;5097408;28;20700;-58
2022/03/04 02:54:17;;;;;;;17.67;11.80;;;1.80;99.90;;;;;;5097863;28;20207;-57
2022/03/04 02:56:45;;;;;;;15.32;10.57;;;1.80;99.90;;;;;;5097104;28;20204;-57
2022/03/04 02:59:12;;;;;;;18.88;11.55;;;1.80;99.90;;;;;;5096106;28;20204;-57
2022/03/04 03:01:40;;;;;;;15.57;10.80;;;1.80;99.90;;;;;;5096966;28;20730;-57
2022/03/04 03:04:08;;;;;;;13.52;9.15;;;1.80;99.90;;;;;;5097289;28;20204;-58
2022/03/04 03:06:35;;;;;;;18.85;9.43;;;1.90;99.90;;;;;;5096691;28;20211;-57
2022/03/04 03:09:02;;;;;;;17.00;10.23;;;1.90;99.90;;;;;;5094508;28;20668;-58
2022/03/04 03:11:29;;;;;;;12.88;9.43;;;1.90;99.90;;;;;;5095191;28;20196;-57
2022/03/04 03:13:57;;;;;;;13.25;9.60;;;1.90;99.90;;;;;;5094471;28;20287;-58
2022/03/04 03:16:24;;;;;;;14.60;10.02;;;1.90;99.90;;;;;;5094140;28;20277;-58
2022/03/04 03:18:51;;;;;;;14.05;9.30;;;1.90;99.90;;;;;;5094163;28;20204;-58
2022/03/04 03:21:19;;;;;;;12.50;9.52;;;1.90;99.90;;;;;;5094517;28;20545;-58
2022/03/04 03:23:46;;;;;;;13.35;8.95;;;1.90;99.90;;;;;;5094290;28;20208;-57
2022/03/04 03:26:13;;;;;;;14.27;9.38;;;1.90;99.90;;;;;;5094229;28;20223;-57
2022/03/04 03:28:40;;;;;;;11.80;8.85;;;1.90;99.90;;;;;;5093847;28;20302;-58
2022/03/04 03:31:09;;;;;;;12.00;8.38;;;1.90;99.90;;;;;;5094047;28;20200;-58
2022/03/04 03:33:37;;;;;;;12.63;9.13;;;1.90;99.90;;;;;;5093826;28;20223;-58
2022/03/04 03:36:05;;;;;;;15.60;9.60;;;1.90;99.90;;;;;;5093737;28;20710;-58
2022/03/04 03:38:32;;;;;;;12.82;8.98;;;2.00;99.90;;;;;;5093551;28;20200;-58
2022/03/04 03:40:59;;;;;;;14.02;9.18;;;2.00;99.90;;;;;;5093616;28;20342;-57
2022/03/04 03:43:26;;;;;;;11.90;8.95;;;1.90;99.90;;;;;;5093723;28;20228;-58
2022/03/04 03:45:53;;;;;;;16.05;8.75;;;1.90;99.90;;;;;;5093406;28;20196;-57
2022/03/04 03:48:22;;;;;;;13.95;9.57;;;2.00;99.90;;;;;;5093249;28;20196;-56
2022/03/04 03:50:49;;;;;;;10.38;7.60;;;2.00;99.90;;;;;;5093606;28;20212;-56
2022/03/04 03:53:16;;;;;;;11.50;8.13;;;2.00;99.90;;;;;;5093120;28;20631;-57
2022/03/04 03:55:43;;;;;;;12.80;8.07;;;2.00;99.90;;;;;;5093111;28;20217;-57
2022/03/04 03:58:10;;;;;;;13.85;8.60;;;2.00;99.90;;;;;;5093440;28;20210;-57
2022/03/04 04:00:37;;;;;;;11.35;7.95;;;2.00;99.90;;;;;;5093131;28;20200;-57
2022/03/04 04:03:04;;;;;;;12.52;7.97;;;2.00;99.90;;;;;;5093479;28;20244;-58
2022/03/04 04:05:33;;;;;;;15.52;8.40;;;2.00;99.90;;;;;;5093298;28;20192;-57
2022/03/04 04:09:25;;;;;;;13.02;8.82;;;1.90;99.90;;;;;;5111923;27;20560;-59
2022/03/04 04:11:53;;;;;;;13.20;9.18;;;2.00;99.90;;;;;;5111705;28;20220;-57
2022/03/04 04:14:20;;;;;;;9.75;8.57;;;2.00;99.90;;;;;;5111381;28;20694;-58
2022/03/04 04:16:47;;;;;;;12.75;8.23;;;2.00;99.90;;;;;;5110703;28;20567;-58
2022/03/04 04:21:50;;;;;;;15.38;8.45;;;2.00;99.90;;;;;;5089589;28;20322;-63
2022/03/04 04:24:17;;;;;;;12.45;8.48;;;1.90;99.90;;;;;;5091029;28;20204;-63
2022/03/04 04:26:46;;;;;;;14.20;9.90;;;2.00;99.90;;;;;;5090326;28;20688;-63
2022/03/04 04:29:13;;;;;;;10.40;9.30;;;2.00;99.90;;;;;;5090665;28;20239;-64
2022/03/04 04:31:41;;;;;;;11.82;8.20;;;2.00;99.90;;;;;;5090338;28;20212;-64
2022/03/04 04:34:08;;;;;;;14.10;8.93;;;2.00;99.90;;;;;;5090066;28;20203;-64
2022/03/04 04:36:35;;;;;;;12.40;8.57;;;1.90;99.90;;;;;;5096510;28;20204;-64
2022/03/04 04:39:03;;;;;;;11.48;8.30;;;1.90;99.90;;;;;;5095519;28;20564;-64
2022/03/04 04:41:30;;;;;;;12.95;7.63;;;1.90;99.90;;;;;;5095852;28;20224;-64
2022/03/04 04:43:58;;;;;;;11.80;8.10;;;1.90;99.90;;;;;;5096074;28;20205;-63
2022/03/04 04:46:25;;;;;;;11.10;7.75;;;1.90;99.90;;;;;;5090822;28;20586;-64
2022/03/04 04:48:52;;;;;;;13.68;8.25;;;1.90;99.90;;;;;;5089779;28;20738;-65
2022/03/04 04:51:20;;;;;;;10.68;7.03;;;1.90;99.90;;;;;;5089958;28;20231;-64
2022/03/04 04:53:47;;;;;;;10.13;7.05;;;1.90;99.90;;;;;;5090321;28;20204;-64
2022/03/04 04:56:14;;;;;;;9.55;6.78;;;1.90;99.90;;;;;;5089639;28;20208;-64
2022/03/04 04:58:41;;;;;;;11.90;6.90;;;1.90;99.90;;;;;;5090135;28;20200;-64
2022/03/04 05:01:09;;;;;;;13.43;8.60;;;2.00;99.90;;;;;;5089551;28;20221;-63
2022/03/04 05:03:36;;;;;;;10.93;7.45;;;2.00;99.90;;;;;;5089597;28;20209;-63
2022/03/04 05:06:04;;;;;;;10.20;7.75;;;1.90;99.90;;;;;;5089910;28;20200;-63
2022/03/04 05:08:31;;;;;;;9.68;8.07;;;1.90;99.90;;;;;;5089922;28;20223;-64
2022/03/04 05:10:58;;;;;;;9.35;7.38;;;1.90;99.90;;;;;;5089683;28;20224;-64
2022/03/04 05:13:25;;;;;;;14.57;8.15;;;1.80;99.90;;;;;;5090178;28;20200;-63
2022/03/04 05:15:53;;;;;;;8.52;7.40;;;1.80;99.90;;;;;;5090377;28;20212;-64
2022/03/04 05:18:21;;;;;;;11.77;8.02;;;1.80;99.90;;;;;;5091405;28;20201;-64
2022/03/04 05:20:48;;;;;;;12.70;8.07;;;1.80;99.90;;;;;;5076331;28;20716;-64
2022/03/04 05:23:58;;;;;;;8.55;7.65;;;1.80;99.90;;;;;;5079587;28;20205;-64
2022/03/04 05:26:03;;;;;;;11.13;7.78;;;1.70;99.90;;;;;;5078763;28;20264;-63
2022/03/04 05:28:30;;;;;;;11.00;8.18;;;1.70;99.90;;;;;;5076548;28;20225;-64
2022/03/04 05:30:57;;;;;;;13.35;8.90;;;1.70;99.90;;;;;;5075902;28;20685;-63
2022/03/04 05:33:26;;;;;;;16.10;8.90;;;1.70;99.90;;;;;;5076198;28;20601;-64
2022/03/04 05:35:53;;;;;;;8.95;7.22;;;1.70;99.90;;;;;;5075836;28;20216;-62
2022/03/04 05:38:20;;;;;;;13.48;8.57;;;1.70;99.90;;;;;;5075413;28;20204;-61
2022/03/04 05:40:48;;;;;;;14.05;7.75;;;1.70;99.90;;;;;;5076260;28;20612;-63
2022/03/04 05:43:15;;;;;;;12.50;8.30;;;1.70;99.90;;;;;;5075456;28;20209;-64
2022/03/04 05:45:42;;;;;;;10.50;7.82;;;1.60;99.90;;;;;;5075141;28;20201;-63
2022/03/04 05:48:09;;;;;;;13.32;8.88;;;1.60;99.90;;;;;;5075281;28;20217;-63
2022/03/04 05:50:37;;;;;;;14.73;9.38;;;1.60;99.90;;;;;;5078844;28;20224;-62
2022/03/04 05:53:04;;;;;;;15.27;8.25;;;1.50;99.90;;;;;;5086447;28;20197;-65
2022/03/04 05:55:31;;;;;;;12.65;8.82;;;1.50;99.90;;;;;;5084627;28;20205;-64
2022/03/04 05:57:58;;;;;;;15.32;8.43;;;1.40;99.90;;;;;;5083882;28;20209;-63
2022/03/04 06:00:27;;;;;;;11.43;8.60;;;1.40;99.90;;;;;;5081255;28;20221;-64
2022/03/04 06:02:54;;;;;;;10.77;7.80;;;1.40;99.90;;;;;;5078922;28;20657;-62
2022/03/04 06:05:22;;;;;;;16.48;9.10;;;1.40;99.90;;;;;;5075814;28;20280;-63
2022/03/04 06:07:50;;;;;;;12.68;8.85;;;1.40;99.90;;;;;;5076875;28;20207;-62
2022/03/04 06:10:18;;;;;;;11.88;8.30;;;1.40;99.90;;;;;;5076849;28;20221;-62
2022/03/04 06:12:45;;;;;;;11.20;8.00;;;1.40;99.90;;;;;;5080951;28;20204;-63
2022/03/04 06:15:12;;;;;;;15.85;8.52;;;1.40;99.90;;;;;;5078807;28;20213;-63
2022/03/04 06:17:39;;;;;;;13.18;9.07;;;1.40;99.90;;;;;;5075456;28;20212;-62
2022/03/04 06:20:08;;;;;;;13.63;9.50;;;1.40;99.90;;;;;;5075955;28;20264;-63
2022/03/04 06:22:35;;;;;;;15.10;9.65;;;1.50;99.90;;;;;;5075770;28;20185;-61
2022/03/04 06:25:04;;;;;;;12.80;9.75;;;1.50;99.90;;;;;;5076727;28;20219;-62
2022/03/04 06:27:32;;;;;;;13.52;9.13;;;1.50;99.90;;;;;;5075704;28;20201;-63
2022/03/04 06:29:59;;;;;;;13.45;8.63;;;1.60;99.90;;;;;;5075040;28;20320;-63
2022/03/04 06:32:26;;;;;;;15.15;9.75;;;1.60;99.90;;;;;;5073984;28;20580;-62
2022/03/04 06:34:53;;;;;;;15.98;9.40;;;1.60;99.90;;;;;;5075203;28;20212;-63
2022/03/04 06:37:20;;;;;;;14.40;9.68;;;1.60;99.90;;;;;;5075538;28;20212;-64
2022/03/04 06:39:47;;;;;;;14.43;9.82;;;1.60;99.90;;;;;;5075275;28;20571;-64
2022/03/04 06:42:15;;;;;;;13.77;9.57;;;1.70;99.90;;;;;;5075310;28;20303;-63
2022/03/04 06:44:43;;;;;;;16.38;9.73;;;1.70;99.90;;;;;;5074331;28;20533;-62
2022/03/04 06:47:10;;;;;;;16.60;10.13;;;1.70;99.90;;;;;;5076071;28;20209;-62
2022/03/04 06:49:38;;;;;;;12.57;8.90;;;1.80;99.90;;;;;;5075204;28;20229;-62
2022/03/04 06:52:05;;;;;;;13.77;7.95;;;1.80;99.90;;;;;;5075384;28;20201;-62
2022/03/04 06:54:33;;;;;;;12.30;9.45;;;1.80;99.90;;;;;;5075215;28;20201;-63
2022/03/04 06:57:00;;;;;;;12.05;8.60;;;1.90;99.90;;;;;;5074665;28;20205;-63
2022/03/04 06:59:29;;;;;;;12.20;9.18;;;2.00;99.90;;;;;;5074270;28;20669;-61
2022/03/04 07:01:56;;;;;;;14.05;8.43;;;2.00;99.90;;;;;;5074425;28;20661;-62
2022/03/04 07:04:24;;;;;;;14.80;9.43;;;2.10;99.90;;;;;;5074014;28;20205;-62
2022/03/04 07:06:51;;;;;;;12.10;8.43;;;2.10;99.90;;;;;;5073811;28;20197;-63
2022/03/04 07:09:18;;;;;;;12.35;9.38;;;2.30;99.90;;;;;;5073887;28;20216;-63
2022/03/04 07:11:46;;;;;;;11.57;8.07;;;2.30;99.90;;;;;;5074061;28;20212;-61
2022/03/04 07:14:13;;;;;;;12.27;8.95;;;2.40;99.90;;;;;;5074354;28;20205;-62
2022/03/04 07:16:41;;;;;;;15.05;9.25;;;2.40;99.90;;;;;;5074428;28;20208;-62
2022/03/04 07:19:09;;;;;;;15.13;9.80;;;2.40;99.90;;;;;;5074343;28;20281;-62
2022/03/04 07:21:36;;;;;;;13.00;9.55;;;2.40;99.90;;;;;;5074210;28;20268;-62
2022/03/04 07:24:03;;;;;;;12.35;9.50;;;2.50;99.90;;;;;;5074019;28;20574;-62
2022/03/04 07:26:30;;;;;;;16.05;9.75;;;2.50;99.90;;;;;;5073887;28;20205;-61
2022/03/04 07:28:57;;;;;;;13.50;8.65;;;2.60;99.90;;;;;;5073602;28;20217;-62
2022/03/04 07:31:24;;;;;;;14.32;9.70;;;2.60;99.90;;;;;;5074218;28;20221;-63
2022/03/04 07:33:53;;;;;;;12.55;8.57;;;2.60;99.90;;;;;;5073921;28;20196;-62
2022/03/04 07:36:20;;;;;;;13.63;10.10;;;2.60;99.90;;;;;;5074245;28;20221;-62
2022/03/04 07:38:47;;;;;;;17.50;10.50;;;2.60;99.90;;;;;;5073971;28;20197;-62
2022/03/04 07:41:14;;;;;;;16.52;9.52;;;2.60;99.90;;;;;;5074100;28;20300;-61
2022/03/04 07:43:41;;;;;;;12.27;9.43;;;2.70;99.70;;;;;;5073045;28;20213;-61
2022/03/04 07:46:08;;;;;;;15.98;9.80;;;2.70;99.70;;;;;;5073221;28;20201;-61
2022/03/04 07:48:35;;;;;;;14.07;9.43;;;2.70;99.40;;;;;;5072818;28;20640;-62
2022/03/04 07:51:05;;;;;;;15.43;11.02;;;2.70;99.20;;;;;;5072980;28;20228;-62
2022/03/04 07:53:32;;;;;;;16.75;10.40;;;2.70;99.10;;;;;;5073144;28;20196;-62
2022/03/04 07:55:59;;;;;;;16.48;10.15;;;2.80;99.20;;;;;;5073149;28;20205;-62
2022/03/04 07:58:26;;;;;;;15.23;10.55;;;2.80;99.00;;;;;;5072986;28;20219;-63
2022/03/04 08:00:53;;;;;;;13.80;10.13;;;2.90;98.90;;;;;;5073110;28;20225;-62
2022/03/04 08:03:20;;;;;;;15.10;10.52;;;2.90;98.70;;;;;;5072879;28;20201;-61
2022/03/04 08:05:47;;;;;;;13.18;9.20;;;2.90;98.50;;;;;;5073382;28;20212;-61
2022/03/04 08:08:15;;;;;;;14.60;9.68;;;2.90;98.30;;;;;;5073229;28;20208;-62
2022/03/04 08:10:42;;;;;;;13.15;10.50;;;2.90;98.10;;;;;;5073413;28;20221;-62
2022/03/04 08:13:09;;;;;;;13.48;9.10;;;2.90;98.10;;;;;;5072991;28;20205;-61
2022/03/04 08:15:37;;;;;;;12.70;9.93;;;2.90;98.00;;;;;;5073869;28;20208;-61
2022/03/04 08:18:04;;;;;;;15.82;10.38;;;2.90;98.00;;;;;;5073390;28;20208;-62
2022/03/04 08:20:32;;;;;;;10.35;8.05;;;3.00;97.90;;;;;;5072752;28;20716;-61
2022/03/04 08:22:59;;;;;;;14.60;8.73;;;3.00;97.80;;;;;;5072940;28;20210;-62
2022/03/04 08:25:27;;;;;;;11.65;9.68;;;3.00;97.60;;;;;;5073373;28;20288;-63
2022/03/04 08:27:54;;;;;;;12.45;8.88;;;3.10;97.40;;;;;;5073893;28;20207;-63
2022/03/04 08:30:21;;;;;;;14.43;9.50;;;3.10;97.40;;;;;;5084526;28;20228;-62
2022/03/04 08:32:49;;;;;;;14.63;9.82;;;3.20;97.30;;;;;;5086610;28;20209;-62
2022/03/04 08:35:16;;;;;;;11.75;9.25;;;3.30;97.10;;;;;;5085717;28;20229;-63
2022/03/04 08:37:43;;;;;;;12.90;9.90;;;3.40;96.90;;;;;;5084151;28;20691;-62
2022/03/04 08:40:11;;;;;;;17.55;9.68;;;3.40;96.70;;;;;;5085821;28;20228;-63
2022/03/04 08:42:42;;;;;;;13.85;9.70;;;3.50;96.40;;;;;;5076731;28;20627;-63
2022/03/04 08:45:10;;;;;;;13.40;9.13;;;3.60;96.30;;;;;;5075267;28;20646;-63
2022/03/04 08:47:38;;;;;;;16.85;11.63;;;3.60;95.80;;;;;;5077797;28;20208;-63
2022/03/04 08:50:06;;;;;;;14.95;10.38;;;3.60;95.50;;;;;;5082603;28;20224;-62
2022/03/04 08:52:33;;;;;;;13.65;10.90;;;3.60;95.60;;;;;;5077968;28;20201;-61
2022/03/04 08:55:00;;;;;;;16.10;10.43;;;3.60;95.60;;;;;;5074990;28;20212;-61
2022/03/04 08:57:28;;;;;;;16.27;10.52;;;3.70;95.60;;;;;;5076961;28;20238;-63
2022/03/04 08:59:56;;;;;;;12.98;10.13;;;3.80;95.60;;;;;;5076577;28;20225;-62
2022/03/04 09:02:23;;;;;;;20.45;13.20;;;3.80;95.10;;;;;;5076977;28;20228;-62
2022/03/04 09:04:50;;;;;;;20.20;12.60;;;3.90;95.00;;;;;;5076555;28;20197;-62
2022/03/04 09:07:17;;;;;;;20.77;11.40;;;4.00;94.60;;;;;;5076497;28;20673;-61
2022/03/04 09:09:44;;;;;;;18.05;12.63;;;4.00;94.60;;;;;;5076695;28;20620;-62
2022/03/04 09:12:12;;;;;;;16.23;12.20;;;4.10;94.50;;;;;;5076744;28;20551;-62
2022/03/04 09:14:39;;;;;;;16.48;11.30;;;4.10;94.10;;;;;;5076515;28;20205;-61
2022/03/04 09:17:07;;;;;;;15.15;10.57;;;4.20;94.20;;;;;;5076268;28;20208;-63
2022/03/04 09:19:34;;;;;;;17.85;12.20;;;4.20;93.80;;;;;;5075756;28;20228;-62
2022/03/04 09:22:01;;;;;;;15.85;10.35;;;4.10;93.80;;;;;;5076190;28;20200;-62
2022/03/04 09:24:29;;;;;;;17.05;11.20;;;4.20;93.80;;;;;;5076260;28;20204;-62
2022/03/04 09:26:56;;;;;;;13.30;10.05;;;4.30;93.30;;;;;;5075845;28;20208;-62
2022/03/04 09:29:23;;;;;;;16.15;10.55;;;4.30;93.40;;;;;;5075993;28;20622;-63
2022/03/04 09:31:51;;;;;;;16.38;11.13;;;4.40;93.10;;;;;;5076049;28;20208;-62
2022/03/04 09:34:19;;;;;;;17.63;11.88;;;4.30;92.70;;;;;;5075992;28;20669;-61
2022/03/04 09:36:46;;;;;;;16.75;10.82;;;4.30;92.60;;;;;;5076338;28;20625;-62
2022/03/04 09:39:14;;;;;;;19.60;10.80;;;4.20;92.60;;;;;;5076756;28;20225;-61
2022/03/04 09:41:44;;;;;;;15.18;10.40;;;4.30;92.80;;;;;;5076038;28;20231;-63
2022/03/04 09:44:12;;;;;;;13.40;10.07;;;4.40;92.80;;;;;;5076873;28;20546;-63
2022/03/04 09:46:41;;;;;;;13.10;11.20;;;4.60;92.30;;;;;;5077679;28;20204;-63
2022/03/04 09:49:09;;;;;;;11.38;9.23;;;4.60;92.10;;;;;;5076681;28;20625;-63
2022/03/04 09:51:38;;;;;;;14.32;10.57;;;4.70;91.90;;;;;;5083802;28;20232;-62
2022/03/04 09:54:05;;;;;;;15.15;10.20;;;4.70;91.80;;;;;;5091352;28;20215;-63
2022/03/04 09:56:32;;;;;;;11.68;9.63;;;4.70;91.80;;;;;;5093453;28;20209;-62
2022/03/04 09:58:59;;;;;;;12.90;9.90;;;4.80;91.40;;;;;;5090932;28;20288;-62
2022/03/04 10:01:26;;;;;;;12.70;10.90;;;4.90;91.20;;;;;;5090950;28;20232;-63
2022/03/04 10:03:56;;;;;;;13.73;8.68;;;5.00;91.00;;;;;;5091361;28;20232;-63
2022/03/04 10:06:23;;;;;;;13.43;9.05;;;5.00;90.60;;;;;;5082563;28;20200;-63
2022/03/04 10:08:53;;;;;;;12.00;10.70;;;5.10;90.20;;;;;;5080210;28;20208;-63
2022/03/04 10:11:26;;;;;;;14.30;9.68;;;5.20;90.20;;;;;;5079984;28;20220;-63
2022/03/04 10:13:55;;;;;;;14.32;9.70;;;5.30;90.20;;;;;;5080543;28;20201;-63
2022/03/04 10:16:28;;;;;;;11.73;9.32;;;5.50;89.20;;;;;;5083515;28;20212;-63
2022/03/04 10:19:09;;;;;;;11.85;8.75;;;5.70;88.10;;;;;;5082640;28;20200;-63
2022/03/04 10:21:50;;;;;;;11.50;8.77;;;5.90;87.70;;;;;;5082947;22;20255;-62
2022/03/04 10:24:20;;;;;;;11.75;8.77;;;6.20;86.10;;;;;;5054355;28;20222;-64
2022/03/04 10:26:48;;;;;;;13.57;9.07;;;6.30;83.60;;;;;;5054325;28;20225;-62
2022/03/04 10:29:20;;;;;;;12.50;8.30;;;6.30;83.50;;;;;;5054027;28;20225;-61
2022/03/04 10:32:10;;;;;;;10.80;8.45;;;6.40;83.20;;;;;;5054432;28;20748;-62
2022/03/04 10:34:54;;;;;;;9.73;8.18;;;6.40;81.70;;;;;;5054659;28;20194;-61
2022/03/04 10:37:23;;;;;;;12.55;9.35;;;6.40;81.30;;;;;;5053971;28;20201;-61
2022/03/04 10:40:07;;;;;;;10.73;8.80;;;6.40;81.40;;;;;;5053667;28;20205;-62
2022/03/04 10:42:51;;;;;;;12.20;8.35;;;6.50;80.30;;;;;;5054014;28;20190;-61
2022/03/04 10:45:21;;;;;;;9.00;7.60;;;6.50;79.70;;;;;;5053787;28;20557;-61
2022/03/04 10:47:51;;;;;;;11.68;8.20;;;6.50;79.00;;;;;;5053458;28;20682;-61
2022/03/04 10:50:20;;;;;;;11.13;8.48;;;6.50;79.20;;;;;;5053759;28;20252;-61
2022/03/04 10:52:57;;;;;;;10.43;8.30;;;6.50;78.20;;;;;;5053604;28;20230;-61
2022/03/04 10:55:36;;;;;;;12.20;8.30;;;6.30;77.40;;;;;;5053618;28;20192;-61
2022/03/04 10:58:06;;;;;;;12.93;9.20;;;6.10;78.10;;;;;;5053876;28;20197;-61
2022/03/04 11:00:36;;;;;;;11.00;8.18;;;6.10;79.00;;;;;;5053905;28;20296;-61
2022/03/04 11:03:05;;;;;;;10.65;7.93;;;6.20;79.20;;;;;;5053638;28;20275;-61
2022/03/04 11:05:32;;;;;;;9.80;8.15;;;6.40;78.30;;;;;;5053811;28;20205;-61
2022/03/04 11:08:01;;;;;;;15.20;9.48;;;6.50;77.40;;;;;;5053739;28;20209;-62
2022/03/04 11:10:28;;;;;;;10.13;9.02;;;6.40;77.30;;;;;;5053185;28;20275;-62
2022/03/04 11:12:56;;;;;;;13.63;8.90;;;6.40;77.40;;;;;;5053826;28;20256;-62
2022/03/04 11:15:25;;;;;;;12.75;8.57;;;6.40;77.50;;;;;;5053387;28;20208;-62
2022/03/04 11:17:53;;;;;;;10.98;7.43;;;6.40;78.00;;;;;;5053188;28;20206;-62
2022/03/04 11:20:20;;;;;;;12.95;7.70;;;6.50;78.30;;;;;;5053185;28;20709;-62
2022/03/04 11:22:51;;;;;;;10.38;8.48;;;6.60;77.80;;;;;;5053641;28;20190;-61
2022/03/04 11:25:19;;;;;;;10.75;7.95;;;6.70;77.00;;;;;;5053900;28;20186;-62
2022/03/04 11:27:55;;;;;;;12.15;8.70;;;6.60;76.20;;;;;;5053870;28;20209;-62
2022/03/04 11:30:37;;;;;;;9.63;5.95;;;6.50;76.40;;;;;;5053620;28;20326;-62
2022/03/04 11:33:16;;;;;;;11.85;7.60;;;6.40;76.60;;;;;;5053389;28;20193;-61
2022/03/04 11:35:53;;;;;;;14.18;10.43;;;6.30;77.20;;;;;;5053370;28;20182;-62
2022/03/04 11:39:05;;;;;;;15.45;9.88;;;6.20;77.80;;;;;;5053628;28;20240;-62
2022/03/04 11:42:01;;;;;;;10.95;7.20;;;6.10;77.40;;;;;;5011580;28;20219;-62
2022/03/04 11:44:28;;;;;;;8.70;6.95;;;5.90;78.10;;;;;;5052360;28;20205;-62
2022/03/04 11:47:02;;;;;;;8.65;5.85;;;5.70;79.70;;;;;;5053817;28;20206;-63
2022/03/04 11:49:35;;;;;;;11.20;6.50;;;5.80;80.10;;;;;;5053424;28;20190;-61
2022/03/04 11:52:25;;;;;;;14.85;8.57;;;5.80;79.80;;;;;;5053609;28;20190;-62
2022/03/04 11:55:26;;;;;;;9.95;7.95;;;5.90;79.70;;;;;;5053198;28;20550;-61
2022/03/04 11:58:03;;;;;;;12.00;7.93;;;6.00;78.80;;;;;;5052550;28;20182;-62
2022/03/04 12:00:33;;;;;;;10.25;6.75;;;5.90;78.00;;;;;;5052716;28;20233;-62
2022/03/04 12:03:12;;;;;;;11.70;7.35;;;5.80;78.80;;;;;;5052821;28;20209;-61
2022/03/04 12:05:45;;;;;;;9.68;6.70;;;5.70;79.20;;;;;;5052752;28;20192;-63
2022/03/04 12:08:13;;;;;;;9.60;7.38;;;5.70;78.80;;;;;;5052621;28;20194;-62
2022/03/04 12:10:47;;;;;;;9.35;7.30;;;5.50;79.10;;;;;;5052422;28;20312;-63
2022/03/04 12:13:18;;;;;;;10.52;6.82;;;5.50;80.00;;;;;;5052344;28;20239;-62
2022/03/04 12:15:50;;;;;;;12.60;7.50;;;5.50;80.20;;;;;;5052463;28;20186;-62
2022/03/04 12:18:25;;;;;;;10.68;7.82;;;5.60;79.30;;;;;;5051914;28;20190;-62
2022/03/04 12:21:13;;;;;;;10.57;7.18;;;5.40;79.40;;;;;;5052123;28;20228;-62
2022/03/04 12:23:49;;;;;;;10.68;7.82;;;5.40;79.80;;;;;;5052198;28;20206;-63
2022/03/04 12:26:23;;;;;;;12.70;7.68;;;5.30;80.40;;;;;;5052283;28;20210;-62
2022/03/04 12:28:53;;;;;;;12.40;8.30;;;5.30;81.10;;;;;;5052391;28;20669;-65
2022/03/04 12:31:24;;;;;;;13.00;8.48;;;5.20;81.80;;;;;;5056188;28;20233;-63
2022/03/04 12:33:56;;;;;;;11.38;8.43;;;5.20;82.60;;;;;;5056539;28;20216;-62
2022/03/04 12:36:25;;;;;;;12.63;8.05;;;5.20;83.20;;;;;;5056157;28;20200;-63
2022/03/04 12:38:54;;;;;;;9.75;7.70;;;5.10;83.00;;;;;;5056489;28;20205;-62
2022/03/04 12:41:22;;;;;;;14.68;8.98;;;4.80;84.10;;;;;;5056364;28;20222;-62
2022/03/04 12:43:51;;;;;;;9.57;7.75;;;4.70;85.00;;;;;;5056317;28;20198;-63
2022/03/04 12:46:20;;;;;;;12.52;8.25;;;4.60;85.70;;;;;;5056792;28;20209;-61
2022/03/04 12:48:48;;;;;;;11.38;7.53;;;4.50;86.60;;;;;;5056149;28;20212;-62
2022/03/04 12:51:30;;;;;;;12.40;8.45;;;4.40;87.20;;;;;;5055725;28;20271;-62
2022/03/04 12:54:01;;;;;;;12.38;8.10;;;4.50;88.00;;;;;;5056121;28;20190;-61
2022/03/04 12:56:28;;;;;;;12.43;7.63;;;4.60;87.00;;;;;;5056299;28;20198;-62